Time;durP1;ratioP1;P1;durP2;ratioP2;P2;SDS_P1;SDS_P2;PMS_P1;PMS_P2;Temp;Humidity;BMP_temperature;BMP_pressure;BME280_temperature;BME280_humidity;BME280_pressure;Samples;Min_cycle;Max_cycle;Signal;HPM_P1;HPM_P2
2022/11/27 00:01:32;;;;;;;45.63;6.68;;;;;;;9.57;100.00;99538.31;4865849;29;20040;-91
2022/11/27 00:04:00;;;;;;;44.83;7.55;;;;;;;9.54;100.00;99544.72;4896731;29;20084;-92
2022/11/27 00:06:29;;;;;;;37.08;5.93;;;;;;;9.57;100.00;99542.75;4903870;29;20037;-92
2022/11/27 00:08:59;;;;;;;39.85;6.18;;;;;;;9.54;100.00;99552.63;4865254;29;20069;-91
2022/11/27 00:11:28;;;;;;;37.15;6.38;;;;;;;9.51;100.00;99545.03;4862908;29;20048;-91
2022/11/27 00:13:56;;;;;;;40.22;6.40;;;;;;;9.48;100.00;99547.16;4879469;29;20508;-92
2022/11/27 00:16:28;;;;;;;40.13;6.88;;;;;;;9.51;100.00;99560.88;4908345;29;20127;-92
2022/11/27 00:18:57;;;;;;;42.10;6.28;;;;;;;9.55;100.00;99574.56;4871514;29;20052;-91
2022/11/27 00:21:28;;;;;;;38.67;6.80;;;;;;;9.55;100.00;99559.56;4877195;29;20127;-92
2022/11/27 00:24:00;;;;;;;44.88;7.35;;;;;;;9.53;100.00;99560.69;4881728;29;20055;-92
2022/11/27 00:26:31;;;;;;;41.83;7.93;;;;;;;9.51;100.00;99567.94;4884870;29;20065;-91
2022/11/27 00:29:01;;;;;;;43.50;6.60;;;;;;;9.50;100.00;99568.94;4913850;29;20397;-91
2022/11/27 00:31:33;;;;;;;32.20;6.10;;;;;;;9.50;100.00;99576.84;4868241;29;20040;-92
2022/11/27 00:34:05;;;;;;;35.60;6.57;;;;;;;9.45;100.00;99576.50;4899204;29;20096;-92
2022/11/27 00:36:34;;;;;;;44.10;8.05;;;;;;;9.41;100.00;99576.00;4879543;29;20045;-92
2022/11/27 00:43:03;;;;;;;31.67;5.65;;;;;;;9.25;100.00;99577.56;4898441;29;20170;-92
2022/11/27 00:45:37;;;;;;;36.70;7.80;;;;;;;9.26;100.00;99587.13;4894167;29;20040;-91
2022/11/27 00:48:08;;;;;;;39.30;5.68;;;;;;;9.18;100.00;99582.66;4884178;29;20045;-96
2022/11/27 00:50:41;;;;;;;32.20;5.63;;;;;;;9.24;100.00;99589.09;4881209;29;20616;-96
2022/11/27 00:53:16;;;;;;;34.70;6.55;;;;;;;9.17;100.00;99591.53;4883662;29;20427;-96
2022/11/27 00:55:54;;;;;;;38.80;6.13;;;;;;;9.12;100.00;99583.28;4871351;29;20083;-92
2022/11/27 00:58:29;;;;;;;45.10;6.32;;;;;;;9.10;100.00;99577.31;4885194;29;20116;-92
2022/11/27 01:01:05;;;;;;;31.55;5.10;;;;;;;9.14;100.00;99585.75;4879095;29;20041;-91
2022/11/27 01:03:38;;;;;;;39.72;7.20;;;;;;;9.13;100.00;99589.34;4880536;29;20037;-92
2022/11/27 01:06:07;;;;;;;34.25;5.15;;;;;;;9.10;100.00;99579.97;4867818;29;20037;-92
2022/11/27 01:08:37;;;;;;;28.45;6.15;;;;;;;9.09;100.00;99578.31;4884447;29;20058;-91
2022/11/27 01:11:05;;;;;;;39.08;6.47;;;;;;;9.10;100.00;99585.25;4870494;29;20036;-96
2022/11/27 01:13:36;;;;;;;36.72;5.93;;;;;;;9.07;100.00;99585.56;4886674;29;20131;-96
2022/11/27 01:16:14;;;;;;;32.63;5.72;;;;;;;9.03;100.00;99590.28;4868349;29;20078;-96
2022/11/27 01:18:48;;;;;;;41.67;5.90;;;;;;;8.98;100.00;99591.75;4884366;29;20048;-96
2022/11/27 01:21:28;;;;;;;32.75;5.80;;;;;;;8.93;100.00;99587.75;4880216;29;20045;-92
2022/11/27 01:23:58;;;;;;;27.65;5.07;;;;;;;8.91;100.00;99612.63;4881165;29;20049;-92
2022/11/27 01:26:32;;;;;;;38.00;5.25;;;;;;;8.83;100.00;99596.75;4879751;29;20188;-93
2022/11/27 01:29:04;;;;;;;32.65;5.85;;;;;;;8.83;100.00;99597.59;4910751;29;20129;-94
2022/11/27 01:31:34;;;;;;;35.05;5.55;;;;;;;8.81;100.00;99599.53;4873031;29;20115;-96
2022/11/27 01:34:20;;;;;;;37.70;5.93;;;;;;;8.81;100.00;99610.06;4882138;29;20124;-96
2022/11/27 01:36:48;;;;;;;30.52;5.20;;;;;;;8.79;100.00;99615.50;4881586;29;20033;-92
2022/11/27 01:39:20;;;;;;;39.35;5.20;;;;;;;8.79;100.00;99619.97;4884084;29;20048;-92
2022/11/27 01:41:56;;;;;;;32.60;5.95;;;;;;;8.73;100.00;99612.69;4882571;29;20048;-92
2022/11/27 01:44:33;;;;;;;36.33;4.63;;;;;;;8.75;100.00;99611.53;4866225;29;20092;-92
2022/11/27 01:47:07;;;;;;;32.67;5.00;;;;;;;8.64;100.00;99601.22;4885805;29;20036;-92
2022/11/27 01:49:52;;;;;;;34.08;5.20;;;;;;;8.58;100.00;99612.38;4877772;29;20053;-92
2022/11/27 01:52:26;;;;;;;29.48;5.13;;;;;;;8.48;100.00;99601.88;4861320;29;20032;-92
2022/11/27 01:55:08;;;;;;;37.63;4.97;;;;;;;8.39;100.00;99598.38;4858846;29;20044;-92
2022/11/27 01:57:44;;;;;;;32.70;5.72;;;;;;;8.32;100.00;99606.03;4893577;29;20039;-96
2022/11/27 02:00:15;;;;;;;29.35;5.10;;;;;;;8.27;100.00;99619.66;4876790;29;20072;-96
2022/11/27 02:02:44;;;;;;;30.30;4.50;;;;;;;8.19;100.00;99623.03;4862520;29;20055;-96
2022/11/27 02:05:17;;;;;;;28.15;5.18;;;;;;;8.16;100.00;99615.44;4898174;29;20040;-96
2022/11/27 02:07:46;;;;;;;30.02;5.32;;;;;;;8.10;100.00;99604.66;4878127;29;20044;-96
2022/11/27 02:10:15;;;;;;;39.33;5.63;;;;;;;8.04;100.00;99599.00;4881719;29;20047;-96
2022/11/27 02:12:52;;;;;;;28.33;5.32;;;;;;;7.99;100.00;99617.06;4873117;29;20051;-92
2022/11/27 02:15:42;;;;;;;30.60;4.80;;;;;;;8.00;100.00;99618.72;4897193;29;20386;-92
2022/11/27 02:18:26;;;;;;;38.63;5.63;;;;;;;7.98;100.00;99611.97;4880938;29;20389;-92
2022/11/27 02:21:07;;;;;;;30.88;5.20;;;;;;;7.94;100.00;99612.25;4891277;29;20047;-92
2022/11/27 02:24:09;;;;;;;33.17;5.70;;;;;;;7.93;100.00;99628.19;4881857;29;20040;-92
2022/11/27 02:27:05;;;;;;;39.72;5.43;;;;;;;7.91;100.00;99623.06;4900689;29;20107;-92
2022/11/27 02:29:36;;;;;;;36.13;4.80;;;;;;;7.92;100.00;99623.88;4895939;29;20044;-92
2022/11/27 02:32:10;;;;;;;34.55;5.07;;;;;;;7.91;100.00;99622.25;4876175;29;20153;-92
2022/11/27 02:34:47;;;;;;;32.45;5.93;;;;;;;7.93;100.00;99622.94;4882984;29;20059;-92
2022/11/27 02:37:26;;;;;;;38.60;5.30;;;;;;;7.91;100.00;99622.25;4881665;29;20505;-92
2022/11/27 02:40:17;;;;;;;35.53;7.47;;;;;;;7.89;100.00;99625.03;4858980;29;20044;-92
2022/11/27 02:42:58;;;;;;;23.55;5.18;;;;;;;7.88;100.00;99627.78;4886026;29;20449;-92
2022/11/27 02:45:39;;;;;;;30.77;4.60;;;;;;;7.88;100.00;99635.69;4875644;29;20075;-92
2022/11/27 02:48:12;;;;;;;35.33;5.03;;;;;;;7.86;100.00;99627.94;4868432;29;20044;-92
2022/11/27 02:50:44;;;;;;;41.90;5.85;;;;;;;7.88;100.00;99633.06;4884135;29;20115;-92
2022/11/27 02:53:22;;;;;;;41.40;5.32;;;;;;;7.88;100.00;99639.16;4883597;29;20040;-92
2022/11/27 02:55:53;;;;;;;32.38;6.40;;;;;;;7.86;100.00;99629.75;4868515;29;20044;-92
2022/11/27 02:58:27;;;;;;;41.55;6.18;;;;;;;7.84;100.00;99631.69;4883942;29;20503;-92
2022/11/27 03:00:57;;;;;;;27.98;4.82;;;;;;;7.81;100.00;99632.81;4899442;29;20036;-92
2022/11/27 03:03:32;;;;;;;48.78;6.93;;;;;;;7.79;100.00;99640.00;4880389;29;20037;-92
2022/11/27 03:06:07;;;;;;;37.97;5.68;;;;;;;7.78;100.00;99646.25;4859500;29;20037;-92
2022/11/27 03:08:46;;;;;;;36.47;5.80;;;;;;;7.77;100.00;99641.97;4865120;29;20117;-91
2022/11/27 03:11:16;;;;;;;37.22;6.07;;;;;;;7.73;100.00;99644.06;4883562;29;20540;-92
2022/11/27 03:13:51;;;;;;;30.50;5.40;;;;;;;7.71;100.00;99645.19;4883473;29;20033;-92
2022/11/27 03:16:38;;;;;;;38.58;6.53;;;;;;;7.68;100.00;99655.03;4881046;29;20786;-96
2022/11/27 03:19:13;;;;;;;;;;;;;;;7.59;100.00;99652.44;4899852;29;20042;-96
2022/11/27 03:21:44;;;;;;;37.45;6.90;;;;;;;7.63;100.00;99656.44;4865790;29;19922;-96
2022/11/27 03:24:14;;;;;;;33.60;6.15;;;;;;;7.64;100.00;99661.56;4867122;29;20057;-96
2022/11/27 03:26:44;;;;;;;36.75;5.63;;;;;;;7.61;100.00;99653.13;4882799;29;20116;-92
2022/11/27 03:29:18;;;;;;;31.05;5.30;;;;;;;7.58;100.00;99654.22;4867183;29;20037;-92
2022/11/27 03:31:47;;;;;;;42.80;5.55;;;;;;;7.56;100.00;99658.81;4882181;29;20127;-92
2022/11/27 03:34:16;;;;;;;39.08;6.85;;;;;;;7.60;100.00;99656.72;4881884;29;20044;-92
2022/11/27 03:36:45;;;;;;;37.05;7.78;;;;;;;7.58;100.00;99659.47;4881886;29;20029;-92
2022/11/27 03:39:13;;;;;;;44.60;6.13;;;;;;;7.56;100.00;99667.50;4881995;29;20088;-92
2022/11/27 03:41:43;;;;;;;35.97;6.13;;;;;;;7.50;100.00;99654.94;4897759;29;20097;-92
2022/11/27 03:44:41;;;;;;;33.83;5.93;;;;;;;7.45;100.00;99665.88;4878751;29;20391;-91
2022/11/27 03:47:25;;;;;;;40.80;6.38;;;;;;;7.39;100.00;99669.09;4872473;29;20041;-96
2022/11/27 03:50:20;;;;;;;39.63;5.47;;;;;;;7.38;100.00;99669.25;4852718;29;20059;-95
2022/11/27 03:53:29;;;;;;;37.92;5.55;;;;;;;7.34;100.00;99667.88;4881718;29;20056;-92
2022/11/27 03:56:15;;;;;;;37.72;6.18;;;;;;;7.36;100.00;99671.19;4865847;29;20044;-92
2022/11/27 03:58:58;;;;;;;30.15;4.97;;;;;;;7.36;100.00;99656.25;4880732;29;20040;-92
2022/11/27 04:01:27;;;;;;;36.50;4.50;;;;;;;7.40;100.00;99672.56;4899967;29;20033;-92
2022/11/27 04:03:55;;;;;;;52.90;5.68;;;;;;;7.45;100.00;99668.53;4893279;29;20045;-91
2022/11/27 04:06:23;;;;;;;45.63;6.53;;;;;;;7.45;100.00;99665.88;4869934;29;20037;-92
2022/11/27 04:08:50;;;;;;;32.80;4.88;;;;;;;7.47;100.00;99675.47;4897230;29;20072;-92
2022/11/27 04:11:18;;;;;;;41.55;5.20;;;;;;;7.43;100.00;99672.28;4881443;29;20033;-93
2022/11/27 04:13:46;;;;;;;33.65;4.72;;;;;;;7.39;100.00;99665.66;4880129;29;20092;-91
2022/11/27 04:16:14;;;;;;;29.05;5.10;;;;;;;7.34;100.00;99665.25;4881294;29;20041;-92
2022/11/27 04:18:41;;;;;;;37.03;4.88;;;;;;;7.27;100.00;99664.97;4897072;29;20036;-92
2022/11/27 04:21:11;;;;;;;38.47;5.47;;;;;;;7.23;100.00;99674.94;4877840;29;20036;-92
2022/11/27 04:23:40;;;;;;;27.77;4.75;;;;;;;7.19;100.00;99669.16;4890280;29;20032;-92
2022/11/27 04:26:10;;;;;;;39.80;7.80;;;;;;;7.14;100.00;99665.28;4881582;29;20055;-92
2022/11/27 04:28:40;;;;;;;32.03;4.35;;;;;;;7.12;100.00;99675.13;4881012;29;20043;-92
2022/11/27 04:31:08;;;;;;;33.85;4.28;;;;;;;7.13;100.00;99682.03;4878399;29;20092;-92
2022/11/27 04:33:36;;;;;;;36.08;5.18;;;;;;;7.12;100.00;99683.81;4881431;29;20124;-92
2022/11/27 04:36:06;;;;;;;30.25;5.07;;;;;;;7.15;100.00;99683.53;4866175;29;20044;-92
2022/11/27 04:38:36;;;;;;;37.97;5.35;;;;;;;7.18;100.00;99687.69;4896959;29;20135;-92
2022/11/27 04:41:05;;;;;;;28.30;3.88;;;;;;;7.19;100.00;99681.47;4912709;29;20042;-92
2022/11/27 04:43:35;;;;;;;37.85;5.88;;;;;;;7.17;100.00;99681.59;4880876;29;20047;-93
2022/11/27 04:46:04;;;;;;;25.75;4.93;;;;;;;7.17;100.00;99683.41;4881473;29;20051;-95
2022/11/27 04:48:32;;;;;;;35.30;5.43;;;;;;;7.12;100.00;99683.00;4870889;29;20037;-96
2022/11/27 04:51:00;;;;;;;33.75;5.25;;;;;;;7.14;100.00;99689.78;4865685;29;20040;-92
2022/11/27 04:53:28;;;;;;;39.20;6.60;;;;;;;7.12;100.00;99685.63;4895083;29;20044;-92
2022/11/27 04:55:56;;;;;;;31.52;4.97;;;;;;;7.07;100.00;99686.88;4881385;29;20040;-92
2022/11/27 04:58:24;;;;;;;38.45;5.85;;;;;;;7.00;100.00;99685.78;4894485;29;20036;-92
2022/11/27 05:00:51;;;;;;;32.85;5.82;;;;;;;6.97;100.00;99688.69;4881445;29;20202;-95
2022/11/27 05:03:19;;;;;;;35.08;4.50;;;;;;;6.91;100.00;99684.00;4875275;29;20037;-95
2022/11/27 05:05:57;;;;;;;34.25;5.30;;;;;;;6.91;100.00;99692.69;4909819;29;20040;-95
2022/11/27 05:08:30;;;;;;;35.00;4.88;;;;;;;6.89;100.00;99681.50;4883762;29;20051;-95
2022/11/27 05:11:07;;;;;;;29.98;4.85;;;;;;;6.88;100.00;99682.44;4884995;29;20044;-92
2022/11/27 05:13:35;;;;;;;39.65;5.80;;;;;;;6.86;100.00;99684.41;4869514;29;20047;-92
2022/11/27 05:16:04;;;;;;;45.03;5.10;;;;;;;6.88;100.00;99682.44;4899941;29;20037;-92
2022/11/27 05:18:31;;;;;;;41.20;4.97;;;;;;;6.84;100.00;99675.84;4900130;29;20039;-92
2022/11/27 05:21:05;;;;;;;34.42;5.60;;;;;;;6.87;100.00;99679.97;4884436;29;20040;-91
2022/11/27 05:23:33;;;;;;;30.58;4.82;;;;;;;6.85;100.00;99676.66;4884021;29;20485;-92
2022/11/27 05:26:02;;;;;;;36.92;5.95;;;;;;;6.87;100.00;99679.97;4865723;29;20100;-92
2022/11/27 05:28:29;;;;;;;37.08;5.63;;;;;;;6.85;100.00;99680.09;4863103;29;20041;-92
2022/11/27 05:30:58;;;;;;;44.83;6.03;;;;;;;6.85;100.00;99684.56;4880915;29;20100;-92
2022/11/27 05:33:26;;;;;;;30.08;5.45;;;;;;;6.79;100.00;99681.50;4850588;29;20037;-92
2022/11/27 05:35:53;;;;;;;40.72;6.32;;;;;;;6.81;100.00;99684.84;4865881;29;20072;-92
2022/11/27 05:38:21;;;;;;;45.60;5.72;;;;;;;6.77;100.00;99683.44;4866061;29;20036;-91
2022/11/27 05:40:50;;;;;;;38.72;6.60;;;;;;;6.76;100.00;99675.69;4866780;29;20136;-91
2022/11/27 05:43:17;;;;;;;44.42;5.72;;;;;;;6.75;100.00;99674.88;4864763;29;20032;-92
2022/11/27 05:45:47;;;;;;;31.63;4.78;;;;;;;6.75;100.00;99672.25;4866600;29;20045;-96
2022/11/27 05:48:16;;;;;;;32.88;5.05;;;;;;;6.78;100.00;99676.38;4851293;29;20123;-95
2022/11/27 05:50:44;;;;;;;38.58;5.65;;;;;;;6.76;100.00;99667.81;4866575;29;20069;-92
2022/11/27 05:53:15;;;;;;;35.17;5.50;;;;;;;6.75;100.00;99668.78;4866163;29;20065;-92
2022/11/27 05:55:45;;;;;;;40.50;5.05;;;;;;;6.75;100.00;99674.88;4848159;29;20032;-92
2022/11/27 05:58:14;;;;;;;33.28;4.82;;;;;;;6.77;100.00;99670.28;4862908;29;20088;-92
2022/11/27 06:00:45;;;;;;;30.70;4.90;;;;;;;6.77;100.00;99670.28;4866832;29;20033;-92
2022/11/27 06:03:15;;;;;;;35.15;5.72;;;;;;;6.81;100.00;99673.47;4850503;29;20128;-92
2022/11/27 06:05:43;;;;;;;34.15;5.22;;;;;;;6.77;100.00;99664.22;4866884;29;20036;-94
2022/11/27 06:08:11;;;;;;;33.50;5.07;;;;;;;6.77;100.00;99669.50;4848942;29;20037;-95
2022/11/27 06:10:39;;;;;;;36.00;5.25;;;;;;;6.73;100.00;99665.47;4866426;29;20037;-95
2022/11/27 06:13:07;;;;;;;29.98;6.00;;;;;;;6.72;100.00;99666.44;4864648;29;20116;-91
2022/11/27 06:15:38;;;;;;;40.17;5.55;;;;;;;6.73;100.00;99650.53;4866541;29;20463;-92
2022/11/27 06:18:09;;;;;;;35.83;6.60;;;;;;;6.72;100.00;99650.69;4880833;29;20089;-92
2022/11/27 06:20:39;;;;;;;38.28;5.68;;;;;;;6.71;100.00;99644.59;4865967;29;20794;-92
2022/11/27 06:23:08;;;;;;;39.55;5.85;;;;;;;6.72;100.00;99640.19;4865963;29;20116;-92
2022/11/27 06:25:36;;;;;;;36.13;5.10;;;;;;;6.72;100.00;99642.81;4881123;29;20485;-92
2022/11/27 06:28:05;;;;;;;31.25;4.35;;;;;;;6.77;100.00;99644.03;4884221;29;20044;-92
2022/11/27 06:30:32;;;;;;;33.67;4.70;;;;;;;6.79;100.00;99646.53;4883261;29;20469;-92
2022/11/27 06:33:02;;;;;;;35.33;5.40;;;;;;;6.80;100.00;99637.69;4880205;29;20108;-92
2022/11/27 06:35:32;;;;;;;42.38;5.82;;;;;;;6.82;100.00;99639.19;4871198;29;20064;-91
2022/11/27 06:38:02;;;;;;;42.15;6.43;;;;;;;6.83;100.00;99638.22;4862574;29;20043;-92
2022/11/27 06:40:31;;;;;;;47.45;6.40;;;;;;;6.86;100.00;99637.13;4883463;29;20036;-90
2022/11/27 06:43:01;;;;;;;39.13;5.90;;;;;;;6.88;100.00;99642.25;4883329;29;20041;-92
2022/11/27 06:45:31;;;;;;;38.05;5.70;;;;;;;6.88;100.00;99637.78;4867571;29;20025;-92
2022/11/27 06:48:01;;;;;;;52.38;7.53;;;;;;;6.90;100.00;99633.25;4882525;29;20148;-96
2022/11/27 06:50:30;;;;;;;36.55;5.93;;;;;;;6.89;100.00;99630.75;4891495;29;20037;-96
2022/11/27 06:52:59;;;;;;;33.60;5.45;;;;;;;6.89;100.00;99631.59;4883046;29;20033;-92
2022/11/27 06:55:27;;;;;;;29.88;5.03;;;;;;;6.88;100.00;99631.72;4879965;29;20088;-92
2022/11/27 06:57:57;;;;;;;38.80;5.65;;;;;;;6.86;100.00;99629.25;4897999;29;20088;-91
2022/11/27 07:00:25;;;;;;;34.88;4.57;;;;;;;6.87;100.00;99624.81;4883226;29;20043;-92
2022/11/27 07:02:54;;;;;;;42.65;6.05;;;;;;;6.87;100.00;99628.28;4879512;29;20036;-93
2022/11/27 07:05:24;;;;;;;36.20;6.45;;;;;;;6.87;100.00;99625.63;4873961;29;20037;-91
2022/11/27 07:07:53;;;;;;;42.58;5.35;;;;;;;6.87;100.00;99617.75;4886585;29;20025;-92
2022/11/27 07:10:21;;;;;;;43.50;5.20;;;;;;;6.83;100.00;99617.19;4880264;29;20111;-93
2022/11/27 07:12:49;;;;;;;34.20;4.38;;;;;;;6.81;100.00;99615.69;4882852;29;20051;-92
2022/11/27 07:15:16;;;;;;;37.67;5.30;;;;;;;6.72;100.00;99604.22;4866488;29;20118;-92
2022/11/27 07:17:46;;;;;;;37.75;5.15;;;;;;;6.73;100.00;99599.81;4888298;29;20033;-92
2022/11/27 07:20:15;;;;;;;37.70;5.40;;;;;;;6.69;100.00;99601.88;4882309;29;20044;-93
2022/11/27 07:22:43;;;;;;;40.20;5.28;;;;;;;6.66;100.00;99594.28;4880006;29;20065;-93
2022/11/27 07:25:12;;;;;;;40.30;4.68;;;;;;;6.65;100.00;99597.88;4862591;29;20541;-92
2022/11/27 07:27:41;;;;;;;38.05;5.35;;;;;;;6.64;100.00;99593.59;4867322;29;20068;-92
2022/11/27 07:30:09;;;;;;;44.42;6.38;;;;;;;6.62;100.00;99591.13;4893959;29;20068;-93
2022/11/27 07:32:38;;;;;;;27.13;5.22;;;;;;;6.65;100.00;99590.00;4874654;29;20092;-96
2022/11/27 07:35:06;;;;;;;42.33;5.00;;;;;;;6.66;100.00;99583.78;4877620;29;20351;-95
2022/11/27 07:37:36;;;;;;;38.85;6.10;;;;;;;6.66;100.00;99591.66;4882479;29;20064;-92
2022/11/27 07:40:06;;;;;;;30.05;4.93;;;;;;;6.67;100.00;99594.13;4881674;29;20452;-93
2022/11/27 07:42:33;;;;;;;35.30;4.45;;;;;;;6.66;100.00;99587.22;4878602;29;20051;-92
2022/11/27 07:45:01;;;;;;;39.75;4.85;;;;;;;6.67;100.00;99583.63;4878475;29;20043;-93
2022/11/27 07:47:29;;;;;;;30.00;4.95;;;;;;;6.65;100.00;99575.09;4882316;29;20047;-92
2022/11/27 07:49:59;;;;;;;35.20;4.45;;;;;;;6.66;100.00;99574.09;4874141;29;20069;-92
2022/11/27 07:52:28;;;;;;;34.88;5.53;;;;;;;6.67;100.00;99575.75;4907991;29;20111;-92
2022/11/27 07:54:56;;;;;;;39.50;6.25;;;;;;;6.69;100.00;99578.25;4881916;29;20051;-92
2022/11/27 07:57:26;;;;;;;24.40;3.65;;;;;;;6.68;100.00;99569.56;4865734;29;20037;-93
2022/11/27 07:59:54;;;;;;;35.28;4.28;;;;;;;6.68;100.00;99569.56;4880445;29;20040;-92
2022/11/27 08:02:22;;;;;;;38.75;4.80;;;;;;;6.69;100.00;99567.72;4868005;29;20044;-92
2022/11/27 08:04:49;;;;;;;27.73;4.38;;;;;;;6.69;100.00;99568.56;4865105;29;20118;-93
2022/11/27 08:07:18;;;;;;;34.70;4.03;;;;;;;6.76;100.00;99563.59;4894486;29;20029;-93
2022/11/27 08:09:46;;;;;;;34.60;4.60;;;;;;;6.79;100.00;99557.22;4863960;29;20063;-92
2022/11/27 08:12:14;;;;;;;27.00;3.80;;;;;;;6.85;100.00;99554.03;4896691;29;20068;-95
2022/11/27 08:14:42;;;;;;;37.28;5.57;;;;;;;6.87;100.00;99544.22;4865647;29;20104;-93
2022/11/27 08:17:12;;;;;;;37.38;5.20;;;;;;;6.90;100.00;99546.53;4876438;29;20040;-93
2022/11/27 08:19:39;;;;;;;23.75;3.97;;;;;;;6.91;100.00;99542.13;4888752;29;20103;-92
2022/11/27 08:22:15;;;;;;;28.85;4.28;;;;;;;6.96;100.00;99534.63;4858096;29;20119;-92
2022/11/27 08:24:43;;;;;;;;;;;;;;;6.87;100.00;99533.69;4875478;29;20053;-92
2022/11/27 08:27:12;;;;;;;28.83;4.60;;;;;;;6.93;100.00;99534.91;4903564;29;19915;-92
2022/11/27 08:29:41;;;;;;;36.88;4.88;;;;;;;6.95;100.00;99533.81;4864640;29;20040;-92
2022/11/27 08:32:09;;;;;;;36.35;7.13;;;;;;;6.98;100.00;99539.75;4878681;29;20036;-93
2022/11/27 08:34:39;;;;;;;44.58;6.55;;;;;;;7.01;100.00;99544.69;4894512;29;20029;-93
2022/11/27 08:37:09;;;;;;;30.77;5.78;;;;;;;7.04;100.00;99541.81;4875883;29;20044;-92
2022/11/27 08:39:38;;;;;;;33.67;5.60;;;;;;;7.02;100.00;99538.50;4894779;29;20040;-93
2022/11/27 08:42:06;;;;;;;33.17;4.50;;;;;;;7.02;100.00;99541.13;4876623;29;20076;-92
2022/11/27 08:44:34;;;;;;;36.92;4.80;;;;;;;7.03;100.00;99535.72;4905602;29;20085;-91
2022/11/27 08:47:02;;;;;;;27.50;3.95;;;;;;;7.03;100.00;99543.59;4881583;29;20033;-92
2022/11/27 08:49:30;;;;;;;35.92;4.43;;;;;;;7.07;100.00;99541.53;4878896;29;20035;-92
2022/11/27 08:51:58;;;;;;;39.05;4.93;;;;;;;7.09;100.00;99538.75;4897491;29;20020;-91
2022/11/27 08:54:25;;;;;;;32.22;4.50;;;;;;;7.15;100.00;99543.44;4868027;29;20501;-92
2022/11/27 08:56:53;;;;;;;32.55;4.28;;;;;;;7.18;100.00;99530.81;4883817;29;20116;-93
2022/11/27 08:59:21;;;;;;;35.45;4.80;;;;;;;7.26;100.00;99527.47;4881748;29;20036;-92
2022/11/27 09:01:48;;;;;;;35.63;4.55;;;;;;;7.33;100.00;99514.56;4885870;29;20036;-92
2022/11/27 09:04:17;;;;;;;25.95;4.72;;;;;;;7.43;100.00;99523.25;4900574;29;20060;-92
2022/11/27 09:06:47;;;;;;;37.40;4.75;;;;;;;7.50;100.00;99520.03;4881592;29;20131;-92
2022/11/27 09:09:15;;;;;;;47.47;5.05;;;;;;;7.56;100.00;99533.38;4865520;29;20040;-91
2022/11/27 09:11:43;;;;;;;33.42;5.57;;;;;;;7.60;100.00;99530.50;4890452;29;20536;-92
2022/11/27 09:14:11;;;;;;;36.53;5.53;;;;;;;7.64;100.00;99524.78;4898815;29;20032;-91
2022/11/27 09:16:38;;;;;;;23.73;4.63;;;;;;;7.68;100.00;99522.66;4893439;29;20490;-91
2022/11/27 09:19:08;;;;;;;38.13;5.30;;;;;;;7.78;100.00;99531.34;4885041;29;20108;-92
2022/11/27 09:21:39;;;;;;;29.63;5.95;;;;;;;7.89;100.00;99521.56;4885706;29;20064;-92
2022/11/27 09:24:09;;;;;;;29.25;3.97;;;;;;;7.97;100.00;99516.38;4897653;29;20132;-91
2022/11/27 09:26:39;;;;;;;33.10;4.22;;;;;;;8.01;100.00;99519.56;4885354;29;20412;-91
2022/11/27 09:29:08;;;;;;;31.60;4.78;;;;;;;8.04;100.00;99512.16;4883860;29;20048;-91
2022/11/27 09:31:37;;;;;;;29.35;4.32;;;;;;;8.09;100.00;99518.78;4878386;29;20032;-91
2022/11/27 09:34:05;;;;;;;35.70;4.25;;;;;;;8.10;100.00;99513.38;4886336;29;20036;-90
2022/11/27 09:36:33;;;;;;;29.42;3.70;;;;;;;8.17;100.00;99522.31;4883668;29;20032;-92
2022/11/27 09:39:02;;;;;;;25.95;3.75;;;;;;;8.19;100.00;99514.25;4881406;29;20489;-91
2022/11/27 09:41:37;;;;;;;35.63;4.97;;;;;;;8.24;100.00;99511.16;4868922;29;20029;-92
2022/11/27 09:44:31;;;;;;;31.85;4.57;;;;;;;8.26;100.00;99519.75;4899246;29;20043;-92
2022/11/27 09:47:18;;;;;;;28.88;4.35;;;;;;;8.37;100.00;99518.69;4893472;29;20040;-93
2022/11/27 09:49:57;;;;;;;;;;;;;;;8.35;100.00;99513.56;4879551;29;20068;-93
2022/11/27 09:53:04;;;;;;;27.48;4.47;;;;;;;8.51;100.00;99512.03;4867858;29;19958;-93
2022/11/27 09:55:44;;;;;;;23.77;4.07;;;;;;;8.58;100.00;99517.56;4881017;29;20137;-93
2022/11/27 09:58:36;;;;;;;23.27;3.13;;;;;;;8.68;100.00;99526.16;4881919;29;20028;-93
2022/11/27 10:01:15;;;;;;;20.13;3.25;;;;;;;8.71;100.00;99528.53;4864728;29;20048;-94
2022/11/27 10:03:45;;;;;;;27.92;3.33;;;;;;;8.80;100.00;99532.03;4880333;29;20037;-93
2022/11/27 10:06:26;;;;;;;17.75;3.20;;;;;;;8.79;100.00;99518.00;4892305;29;20111;-94
2022/11/27 10:09:02;;;;;;;16.85;2.55;;;;;;;8.84;100.00;99509.63;4898370;29;20482;-92
2022/11/27 10:11:51;;;;;;;18.73;3.70;;;;;;;8.81;100.00;99500.25;4881663;29;20044;-93
2022/11/27 10:14:23;;;;;;;18.13;2.97;;;;;;;8.81;100.00;99497.59;4897695;29;20170;-92
2022/11/27 10:17:35;;;;;;;17.65;2.75;;;;;;;8.84;100.00;99511.47;4883200;29;20044;-92
2022/11/27 10:20:08;;;;;;;16.13;1.92;;;;;;;8.82;100.00;99508.97;4880878;29;20044;-93
2022/11/27 10:23:00;;;;;;;21.95;3.15;;;;;;;8.83;100.00;99494.81;4883557;29;20040;-93
2022/11/27 10:25:36;;;;;;;17.08;2.80;;;;;;;8.80;100.00;99503.88;4866959;29;20059;-92
2022/11/27 10:28:37;;;;;;;16.77;4.13;;;;;;;8.79;100.00;99499.56;4898301;29;20064;-92
2022/11/27 10:31:22;;;;;;;17.88;3.00;;;;;;;8.76;100.00;99506.97;4880025;29;20061;-94
2022/11/27 10:33:54;;;;;;;16.85;2.40;;;;;;;8.75;100.00;99508.78;4898338;29;20045;-93
2022/11/27 10:36:45;;;;;;;16.73;2.42;;;;;;;8.69;100.00;99498.84;4882361;29;20049;-94
2022/11/27 10:39:40;;;;;;;18.80;3.30;;;;;;;8.66;100.00;99493.91;4881435;29;20028;-95
2022/11/27 10:42:32;;;;;;;14.57;3.03;;;;;;;8.62;100.00;99492.53;4870086;29;20135;-95
2022/11/27 10:45:07;;;;;;;16.75;2.53;;;;;;;8.52;100.00;99487.38;4870706;29;20041;-94
2022/11/27 10:47:40;;;;;;;13.50;2.17;;;;;;;8.47;100.00;99485.19;4869884;29;20055;-95
2022/11/27 10:50:14;;;;;;;13.02;1.67;;;;;;;8.42;100.00;99490.09;4878578;29;20099;-95
2022/11/27 10:53:07;;;;;;;6.82;1.30;;;;;;;8.31;100.00;99476.19;4878951;29;20041;-93
2022/11/27 10:56:06;;;;;;;11.25;1.30;;;;;;;8.18;100.00;99486.28;4899495;29;20064;-95
2022/11/27 10:58:58;;;;;;;7.03;1.15;;;;;;;8.10;100.00;99484.44;4895149;29;20067;-94
2022/11/27 11:01:46;;;;;;;7.60;1.55;;;;;;;8.03;100.00;99478.94;4879270;29;20501;-94
2022/11/27 11:04:20;;;;;;;6.10;1.08;;;;;;;7.93;100.00;99478.22;4892772;29;20029;-92
2022/11/27 11:06:49;;;;;;;4.90;1.40;;;;;;;7.94;100.00;99478.06;4872184;29;20081;-94
2022/11/27 11:09:24;;;;;;;8.00;1.02;;;;;;;7.93;100.00;99470.31;4893834;29;20140;-94
2022/11/27 11:11:52;;;;;;;9.50;3.55;;;;;;;7.96;100.00;99474.44;4860989;29;20611;-95
2022/11/27 11:14:25;;;;;;;7.40;1.25;;;;;;;7.93;100.00;99452.69;4872466;29;20470;-92
2022/11/27 11:16:54;;;;;;;8.15;0.90;;;;;;;7.97;100.00;99452.41;4866334;29;20029;-92
2022/11/27 11:19:34;;;;;;;6.30;1.15;;;;;;;8.07;100.00;99461.84;4866690;29;20410;-95
2022/11/27 11:22:16;;;;;;;6.10;1.25;;;;;;;8.11;100.00;99456.28;4876078;29;20033;-91
2022/11/27 11:24:50;;;;;;;6.82;1.27;;;;;;;8.15;100.00;99469.00;4872710;29;20060;-92
2022/11/27 11:27:31;;;;;;;5.43;1.08;;;;;;;8.23;100.00;99462.16;4895269;29;20485;-92
2022/11/27 11:30:06;;;;;;;2.97;0.73;;;;;;;8.26;100.00;99456.56;4893304;29;20036;-91
2022/11/27 11:32:39;;;;;;;5.32;1.42;;;;;;;8.26;100.00;99443.41;4894718;29;20084;-93
2022/11/27 11:35:37;;;;;;;5.18;1.83;;;;;;;8.26;100.00;99433.72;4891995;29;20160;-94
2022/11/27 11:38:16;;;;;;;2.65;0.82;;;;;;;8.29;100.00;99437.84;4879199;29;20033;-92
2022/11/27 11:41:02;;;;;;;4.65;1.10;;;;;;;8.34;100.00;99438.22;4879099;29;20093;-92
2022/11/27 11:43:35;;;;;;;2.38;0.65;;;;;;;8.38;100.00;99418.47;4897148;29;20041;-92
2022/11/27 11:46:17;;;;;;;3.25;1.27;;;;;;;8.55;100.00;99418.59;4880990;29;20032;-92
2022/11/27 11:49:01;;;;;;;3.45;0.68;;;;;;;8.67;100.00;99400.72;4897739;29;20044;-91
2022/11/27 11:51:48;;;;;;;3.92;0.73;;;;;;;8.79;100.00;99403.91;4879923;29;20071;-91
2022/11/27 11:54:45;;;;;;;1.73;0.40;;;;;;;8.99;100.00;99408.91;4893152;29;20033;-92
2022/11/27 11:57:26;;;;;;;7.15;1.70;;;;;;;9.04;100.00;99386.38;4865205;29;20172;-92
2022/11/27 12:00:09;;;;;;;1.83;0.60;;;;;;;9.16;100.00;99383.41;4896782;29;20512;-92